コロンボ の空港の天気 - METARとTAF

バンダラナイケ国際空港 ( VCBI / CMB ) - スリランカ コロンボ
飛行場実況気象(Metar)
観測時間02/28 05:40 +0530 (02/28 00:10 UTC)
風向・風速北北東 3m/s
視程9000m
天気現象
少しの雲 雲底高度 490m
全天の4割程度の雲 雲底高度 1220m
気温25℃
湿度89%
気圧1009hPa
METARVCBI 280010Z 02005KT 9000 FEW016 SCT040 25/23 Q1009 NOSIG
過去の天気等 Google飛行場航空写真 Wunderground天気予報

過去48時間のMETAR

飛行場予報(TAF)
発表時間: 2/28 03:10 +0530 (2/27 21:40 UTC)
予報対象時間: 28日5時 +0530 ~ 1日11時 +0530
風向・風速北東 6m/s
視程10km以上
少しの雲 雲底高度 490m
28日14時 +0530 ~ 28日20時 +0530 に一時的に
視程7,000m
TAF VCBI 272140Z 2800/0106 04012KT 9999 FEW016 TX33/2807Z TN24/2800Z
TEMPO 2809/2815 7000 -TSRA/SHRA FEW012 SCT016 FEW018CB